createdAt,value
2022-10-11T00:03:03.613Z,12.22
2022-10-11T00:06:07.667Z,12.15
2022-10-11T00:09:16.248Z,12.09
2022-10-11T00:12:19.100Z,12.07
2022-10-11T00:15:22.885Z,12.08
2022-10-11T00:18:26.142Z,12.07
2022-10-11T00:21:28.969Z,12.00
2022-10-11T00:24:31.740Z,11.97
2022-10-11T00:27:35.888Z,11.94
2022-10-11T00:30:43.881Z,11.94
2022-10-11T00:33:47.277Z,11.94
2022-10-11T00:36:50.384Z,11.86
2022-10-11T00:39:53.232Z,11.90
2022-10-11T00:42:56.029Z,11.89
2022-10-11T00:46:01.847Z,11.87
2022-10-11T00:49:13.683Z,11.83
2022-10-11T00:52:37.544Z,11.85
2022-10-11T00:55:48.141Z,11.81
2022-10-11T00:58:51.814Z,11.83
2022-10-11T01:01:55.601Z,11.83
2022-10-11T01:05:25.242Z,11.90
2022-10-11T01:08:21.315Z,11.89
2022-10-11T01:11:27.512Z,11.88
2022-10-11T01:14:46.130Z,11.96
2022-10-11T01:18:11.048Z,12.02
2022-10-11T01:21:41.994Z,12.09
2022-10-11T01:25:10.116Z,12.07
2022-10-11T01:28:26.597Z,12.08
2022-10-11T01:31:40.525Z,12.04
2022-10-11T01:35:02.184Z,12.02
2022-10-11T01:38:22.167Z,12.00
2022-10-11T01:41:29.899Z,11.97
2022-10-11T01:44:34.601Z,11.94
2022-10-11T01:47:47.864Z,11.92
2022-10-11T01:50:52.946Z,11.90
2022-10-11T01:54:11.132Z,11.88
2022-10-11T01:57:38.213Z,11.84
2022-10-11T02:00:55.480Z,11.82
2022-10-11T02:04:29.608Z,11.81
2022-10-11T02:07:53.061Z,11.73
2022-10-11T02:11:15.226Z,11.66
2022-10-11T02:14:25.138Z,11.59
2022-10-11T02:17:34.112Z,11.57
2022-10-11T02:20:40.562Z,11.56
2022-10-11T02:23:52.927Z,11.51
2022-10-11T02:26:58.945Z,11.47
2022-10-11T02:30:04.391Z,11.39
2022-10-11T02:33:11.429Z,11.35
2022-10-11T02:36:22.147Z,11.32
2022-10-11T02:39:49.444Z,11.29
2022-10-11T02:43:01.839Z,11.23
2022-10-11T02:46:07.658Z,11.18
2022-10-11T02:49:12.963Z,11.16
2022-10-11T02:52:15.973Z,11.15
2022-10-11T02:55:19.152Z,11.06
2022-10-11T02:58:23.385Z,10.98
2022-10-11T03:01:30.710Z,10.92
2022-10-11T03:04:35.458Z,10.81
2022-10-11T03:07:39.200Z,10.77
2022-10-11T03:10:42.797Z,10.74
2022-10-11T03:13:45.601Z,10.70
2022-10-11T03:16:48.708Z,10.68
2022-10-11T03:19:51.715Z,10.65
2022-10-11T03:22:54.686Z,10.61
2022-10-11T03:25:58.001Z,10.60
2022-10-11T03:29:16.161Z,10.60
2022-10-11T03:32:19.000Z,10.58
2022-10-11T03:35:23.101Z,10.54
2022-10-11T03:38:25.930Z,10.52
2022-10-11T03:41:29.136Z,10.55
2022-10-11T03:44:31.867Z,10.60
2022-10-11T03:47:39.223Z,10.57
2022-10-11T03:50:42.397Z,10.47
2022-10-11T03:53:45.452Z,10.42
2022-10-11T03:56:48.784Z,10.42
2022-10-11T03:59:51.616Z,10.41
2022-10-11T04:02:54.639Z,10.35
2022-10-11T04:05:57.405Z,10.26
2022-10-11T04:09:00.464Z,10.21
2022-10-11T04:12:04.060Z,10.17
2022-10-11T04:15:07.485Z,10.14
2022-10-11T04:18:10.447Z,10.08
2022-10-11T04:21:13.257Z,10.06
2022-10-11T04:24:16.181Z,10.05
2022-10-11T04:27:19.025Z,10.00
2022-10-11T04:30:22.053Z,9.99
2022-10-11T04:33:24.970Z,9.92
2022-10-11T04:36:27.936Z,9.83
2022-10-11T04:39:30.875Z,9.82
2022-10-11T04:42:34.597Z,9.81
2022-10-11T04:45:37.709Z,9.77
2022-10-11T04:48:40.751Z,9.76
2022-10-11T04:51:43.597Z,9.71
2022-10-11T04:54:47.853Z,9.69
2022-10-11T04:57:50.798Z,9.69
2022-10-11T05:00:53.571Z,9.72
2022-10-11T05:03:56.404Z,9.67
2022-10-11T05:06:59.793Z,9.63
2022-10-11T05:10:04.199Z,9.64
2022-10-11T05:13:07.716Z,9.60
2022-10-11T05:16:11.693Z,9.56
2022-10-11T05:19:14.859Z,9.56
2022-10-11T05:22:17.575Z,9.56
2022-10-11T05:25:20.507Z,9.52
2022-10-11T05:28:25.043Z,9.43
2022-10-11T05:31:29.158Z,9.41
2022-10-11T05:34:32.045Z,9.38
2022-10-11T05:37:34.846Z,9.37
2022-10-11T05:40:39.150Z,9.38
2022-10-11T05:43:42.694Z,9.42
2022-10-11T05:46:45.707Z,9.39
2022-10-11T05:49:48.479Z,9.26
2022-10-11T05:52:51.583Z,9.23
2022-10-11T05:55:58.421Z,9.17
2022-10-11T05:59:02.708Z,9.09
2022-10-11T06:02:05.881Z,9.10
2022-10-11T06:05:09.239Z,9.11
2022-10-11T06:08:12.120Z,9.03
2022-10-11T06:11:21.869Z,9.02
2022-10-11T06:14:24.718Z,9.03
2022-10-11T06:17:27.499Z,9.05
2022-10-11T06:20:30.273Z,9.04
2022-10-11T06:23:33.052Z,9.10
2022-10-11T06:26:37.736Z,9.09
2022-10-11T06:29:41.008Z,9.12
2022-10-11T06:32:46.745Z,9.17
2022-10-11T06:35:49.770Z,9.19
2022-10-11T06:38:54.268Z,9.16
2022-10-11T06:41:57.272Z,9.10
2022-10-11T06:45:00.006Z,9.11
2022-10-11T06:48:05.682Z,9.20
2022-10-11T06:51:08.479Z,9.26
2022-10-11T06:54:11.314Z,9.25
2022-10-11T06:57:14.354Z,9.26
2022-10-11T07:00:17.824Z,9.26
2022-10-11T07:03:20.798Z,9.31
2022-10-11T07:06:26.017Z,9.38
2022-10-11T07:09:29.040Z,9.35
2022-10-11T07:12:31.877Z,9.40
2022-10-11T07:15:38.348Z,9.42
2022-10-11T07:19:07.102Z,9.47
2022-10-11T07:22:09.962Z,9.51
2022-10-11T07:25:13.684Z,9.53
2022-10-11T07:28:17.285Z,9.55
2022-10-11T07:31:22.650Z,9.58
2022-10-11T07:34:25.802Z,9.63
2022-10-11T07:37:28.637Z,9.63
2022-10-11T07:40:32.004Z,9.63
2022-10-11T07:43:34.845Z,9.67
2022-10-11T07:46:38.500Z,9.75
2022-10-11T07:49:42.064Z,9.83
2022-10-11T07:52:44.981Z,9.88
2022-10-11T07:55:47.819Z,9.87
2022-10-11T07:58:56.489Z,9.94
2022-10-11T08:01:59.472Z,10.00
2022-10-11T08:05:02.461Z,10.04
2022-10-11T08:08:05.625Z,10.11
2022-10-11T08:11:08.652Z,10.19
2022-10-11T08:14:11.592Z,10.18
2022-10-11T08:17:16.479Z,10.20
2022-10-11T08:20:19.561Z,10.23
2022-10-11T08:23:22.505Z,10.29
2022-10-11T08:26:25.636Z,10.32
2022-10-11T08:29:28.420Z,10.39
2022-10-11T08:32:31.256Z,10.46
2022-10-11T08:35:34.142Z,10.50
2022-10-11T08:38:38.369Z,10.54
2022-10-11T08:41:47.915Z,10.57
2022-10-11T08:45:12.057Z,10.60
2022-10-11T08:48:23.171Z,10.67
2022-10-11T08:51:44.660Z,10.75
2022-10-11T08:54:50.247Z,10.80
2022-10-11T08:57:56.096Z,10.88
2022-10-11T09:00:59.753Z,10.94
2022-10-11T09:04:03.819Z,10.97
2022-10-11T09:07:44.489Z,11.00
2022-10-11T09:11:23.003Z,11.11
2022-10-11T09:14:37.861Z,11.25
2022-10-11T09:18:00.467Z,11.32
2022-10-11T09:21:31.575Z,11.35
2022-10-11T09:24:47.912Z,11.44
2022-10-11T09:28:05.415Z,11.52
2022-10-11T09:31:11.295Z,11.56
2022-10-11T09:34:15.558Z,11.69
2022-10-11T09:37:30.517Z,11.82
2022-10-11T09:40:45.370Z,12.01
2022-10-11T09:43:51.083Z,12.11
2022-10-11T09:46:55.459Z,12.17
2022-10-11T09:50:06.786Z,12.26
2022-10-11T09:53:09.624Z,12.38
2022-10-11T09:56:13.222Z,12.45
2022-10-11T09:59:25.358Z,12.47
2022-10-11T10:02:30.705Z,12.45
2022-10-11T10:05:37.076Z,12.51
2022-10-11T10:08:39.899Z,12.52
2022-10-11T10:11:43.055Z,12.49
2022-10-11T10:14:56.121Z,12.38
2022-10-11T10:17:59.598Z,12.28
2022-10-11T10:21:03.592Z,12.24
2022-10-11T10:24:17.324Z,12.24
2022-10-11T10:27:45.572Z,12.16
2022-10-11T10:30:56.771Z,12.06
2022-10-11T10:34:00.386Z,12.01
2022-10-11T10:37:25.912Z,12.06
2022-10-11T10:40:45.168Z,12.17
2022-10-11T10:43:55.987Z,12.32
2022-10-11T10:47:30.008Z,12.41
2022-10-11T10:50:51.367Z,12.50
2022-10-11T10:54:17.778Z,12.62
2022-10-11T10:57:29.122Z,12.72
2022-10-11T11:00:42.335Z,12.78
2022-10-11T11:04:08.171Z,12.74
2022-10-11T11:07:29.505Z,12.64
2022-10-11T11:10:42.659Z,12.55
2022-10-11T11:14:19.459Z,12.50
2022-10-11T11:17:32.617Z,12.56
2022-10-11T11:21:13.254Z,12.57
2022-10-11T11:24:43.541Z,12.51
2022-10-11T11:28:05.239Z,12.46
2022-10-11T11:31:23.178Z,12.42
2022-10-11T11:34:46.870Z,12.43
2022-10-11T11:37:59.346Z,12.47
2022-10-11T11:41:11.078Z,12.61
2022-10-11T11:44:30.934Z,12.83
2022-10-11T11:47:48.644Z,13.08
2022-10-11T11:51:01.200Z,13.36
2022-10-11T11:54:30.832Z,13.66
2022-10-11T11:58:06.946Z,13.91
2022-10-11T12:01:31.618Z,14.13
2022-10-11T12:04:38.914Z,14.29
2022-10-11T12:08:02.371Z,14.38
2022-10-11T12:11:06.832Z,14.41
2022-10-11T12:14:37.666Z,14.29
2022-10-11T12:17:56.133Z,14.07
2022-10-11T12:21:17.229Z,13.90
2022-10-11T12:24:20.038Z,13.78
2022-10-11T12:27:39.793Z,13.69
2022-10-11T12:30:48.300Z,13.57
2022-10-11T12:34:03.201Z,13.48
2022-10-11T12:37:17.951Z,13.41
2022-10-11T12:40:42.340Z,13.33
2022-10-11T12:43:48.270Z,13.27
2022-10-11T12:46:50.951Z,13.25
2022-10-11T12:50:15.922Z,13.23
2022-10-11T12:53:31.058Z,13.23
2022-10-11T12:56:47.221Z,13.26
2022-10-11T12:59:50.290Z,13.28
2022-10-11T13:02:53.258Z,13.31
2022-10-11T13:06:01.482Z,13.45
2022-10-11T13:09:10.841Z,13.59
2022-10-11T13:12:18.006Z,13.72
2022-10-11T13:15:23.123Z,13.69
2022-10-11T13:18:26.563Z,13.66
2022-10-11T13:21:33.205Z,13.59
2022-10-11T13:24:39.743Z,13.53
2022-10-11T13:27:44.092Z,13.48
2022-10-11T13:30:50.096Z,13.40
2022-10-11T13:33:55.554Z,13.43
2022-10-11T13:36:59.051Z,13.56
2022-10-11T13:40:02.536Z,13.55
2022-10-11T13:43:08.260Z,13.49
2022-10-11T13:46:23.944Z,13.42
2022-10-11T13:49:37.781Z,13.41
2022-10-11T13:53:07.507Z,13.41
2022-10-11T13:56:12.590Z,13.36
2022-10-11T13:59:20.316Z,13.35
2022-10-11T14:02:25.248Z,13.35
2022-10-11T14:05:41.611Z,13.37
2022-10-11T14:08:58.644Z,13.39
2022-10-11T14:12:29.059Z,13.50
2022-10-11T14:15:38.533Z,13.67
2022-10-11T14:18:47.706Z,13.83
2022-10-11T14:21:52.645Z,14.04
2022-10-11T14:24:55.497Z,14.18
2022-10-11T14:27:59.320Z,14.26
2022-10-11T14:31:02.688Z,14.34
2022-10-11T14:34:06.033Z,14.41
2022-10-11T14:37:10.508Z,14.42
2022-10-11T14:40:28.986Z,14.44
2022-10-11T14:43:32.235Z,14.39
2022-10-11T14:46:41.572Z,14.44
2022-10-11T14:49:44.968Z,14.45
2022-10-11T14:52:47.756Z,14.38
2022-10-11T14:55:51.199Z,14.32
2022-10-11T14:58:55.685Z,14.26
2022-10-11T15:02:11.695Z,14.24
2022-10-11T15:05:15.012Z,14.20
2022-10-11T15:08:18.530Z,14.19
2022-10-11T15:11:22.966Z,14.24
2022-10-11T15:14:29.276Z,14.30
2022-10-11T15:17:32.253Z,14.32
2022-10-11T15:20:38.500Z,14.31
2022-10-11T15:23:41.548Z,14.33
2022-10-11T15:26:45.934Z,14.33
2022-10-11T15:29:49.480Z,14.30
2022-10-11T15:32:53.112Z,14.28
2022-10-11T15:35:55.994Z,14.24
2022-10-11T15:38:58.749Z,14.20
2022-10-11T15:42:01.617Z,14.14
2022-10-11T15:45:04.798Z,14.07
2022-10-11T15:48:08.524Z,14.02
2022-10-11T15:51:11.461Z,13.93
2022-10-11T15:54:14.410Z,13.89
2022-10-11T15:57:17.250Z,13.87
2022-10-11T16:00:22.342Z,13.78
2022-10-11T16:03:27.579Z,13.69
2022-10-11T16:06:30.736Z,13.63
2022-10-11T16:09:33.583Z,13.52
2022-10-11T16:12:36.399Z,13.44
2022-10-11T16:15:41.600Z,13.36
2022-10-11T16:18:44.516Z,13.28
2022-10-11T16:21:47.591Z,13.21
2022-10-11T16:24:50.518Z,13.18
2022-10-11T16:27:53.616Z,13.14
2022-10-11T16:30:57.043Z,13.12
2022-10-11T16:33:59.925Z,13.09
2022-10-11T16:37:02.838Z,13.05
2022-10-11T16:40:07.973Z,13.02
2022-10-11T16:43:10.974Z,12.99
2022-10-11T16:46:13.743Z,12.97
2022-10-11T16:49:25.293Z,12.93
2022-10-11T16:52:28.133Z,12.90
2022-10-11T16:55:30.932Z,12.88
2022-10-11T16:58:34.622Z,12.86
2022-10-11T17:01:38.207Z,12.84
2022-10-11T17:04:41.019Z,12.83
2022-10-11T17:07:46.020Z,12.83
2022-10-11T17:10:57.756Z,12.82
2022-10-11T17:14:01.561Z,12.80
2022-10-11T17:17:05.704Z,12.81
2022-10-11T17:20:08.641Z,12.75
2022-10-11T17:23:12.308Z,12.70
2022-10-11T17:26:27.288Z,12.66
2022-10-11T17:29:30.383Z,12.60
2022-10-11T17:32:33.269Z,12.59
2022-10-11T17:35:36.579Z,12.58
2022-10-11T17:38:39.975Z,12.58
2022-10-11T17:41:44.314Z,12.57
2022-10-11T17:44:47.742Z,12.56
2022-10-11T17:47:50.919Z,12.53
2022-10-11T17:50:54.581Z,12.50
2022-10-11T17:53:58.478Z,12.45
2022-10-11T17:57:02.041Z,12.41
2022-10-11T18:00:06.342Z,12.37
2022-10-11T18:03:10.482Z,12.34
2022-10-11T18:06:15.930Z,12.36
2022-10-11T18:09:19.754Z,12.39
2022-10-11T18:12:22.881Z,12.32
2022-10-11T18:15:26.358Z,12.33
2022-10-11T18:18:29.909Z,12.26
2022-10-11T18:21:35.073Z,12.16
2022-10-11T18:24:39.666Z,12.20
2022-10-11T18:27:46.477Z,12.16
2022-10-11T18:30:49.858Z,12.12
2022-10-11T18:33:54.228Z,12.11
2022-10-11T18:36:59.363Z,12.14
2022-10-11T18:40:03.017Z,12.15
2022-10-11T18:43:06.853Z,12.18
2022-10-11T18:46:13.277Z,12.17
2022-10-11T18:49:16.562Z,12.15
2022-10-11T18:52:19.994Z,12.10
2022-10-11T18:55:23.630Z,12.07
2022-10-11T18:58:26.841Z,12.06
2022-10-11T19:01:32.362Z,12.04
2022-10-11T19:04:35.846Z,12.04
2022-10-11T19:07:40.654Z,12.06
2022-10-11T19:10:44.190Z,12.06
2022-10-11T19:13:49.178Z,11.99
2022-10-11T19:16:53.332Z,11.97
2022-10-11T19:19:57.342Z,11.95
2022-10-11T19:23:01.736Z,11.89
2022-10-11T19:26:08.351Z,11.84
2022-10-11T19:29:15.454Z,11.85
2022-10-11T19:32:18.561Z,11.85
2022-10-11T19:35:22.659Z,11.82
2022-10-11T19:38:25.940Z,11.80
2022-10-11T19:41:29.415Z,11.79
2022-10-11T19:44:35.800Z,11.77
2022-10-11T19:47:46.781Z,11.80
2022-10-11T19:50:50.389Z,11.79
2022-10-11T19:53:58.477Z,11.77
2022-10-11T19:57:01.818Z,11.76
2022-10-11T20:00:04.915Z,11.76
2022-10-11T20:03:07.838Z,11.74
2022-10-11T20:06:11.762Z,11.76
2022-10-11T20:09:29.072Z,11.75
2022-10-11T20:12:33.922Z,11.76
2022-10-11T20:15:38.230Z,11.80
2022-10-11T20:18:42.213Z,11.76
2022-10-11T20:21:45.526Z,11.69
2022-10-11T20:24:50.009Z,11.65
2022-10-11T20:27:53.650Z,11.55
2022-10-11T20:30:58.670Z,11.52
2022-10-11T20:34:04.709Z,11.47
2022-10-11T20:37:08.409Z,11.51
2022-10-11T20:40:12.968Z,11.51
2022-10-11T20:43:19.349Z,11.53
2022-10-11T20:46:27.723Z,11.54
2022-10-11T20:49:31.348Z,11.56
2022-10-11T20:52:35.731Z,11.57
2022-10-11T20:55:39.737Z,11.57
2022-10-11T20:58:48.810Z,11.52
2022-10-11T21:01:52.350Z,11.50
2022-10-11T21:04:55.890Z,11.47
2022-10-11T21:07:59.746Z,11.48
2022-10-11T21:11:04.570Z,11.51
2022-10-11T21:14:07.672Z,11.53
2022-10-11T21:17:10.582Z,11.54
2022-10-11T21:20:13.746Z,11.58
2022-10-11T21:23:18.963Z,11.60
2022-10-11T21:26:26.357Z,11.58
2022-10-11T21:29:32.756Z,11.57
2022-10-11T21:32:37.490Z,11.50
2022-10-11T21:35:41.593Z,11.41
2022-10-11T21:38:45.401Z,11.38
2022-10-11T21:41:48.255Z,11.40
2022-10-11T21:44:52.559Z,11.40
2022-10-11T21:47:56.226Z,11.43
2022-10-11T21:50:59.244Z,11.42
2022-10-11T21:54:02.087Z,11.39
2022-10-11T21:57:05.011Z,11.36
2022-10-11T22:00:08.421Z,11.36
2022-10-11T22:03:11.475Z,11.34
2022-10-11T22:06:16.170Z,11.34
2022-10-11T22:09:19.167Z,11.29
2022-10-11T22:12:21.980Z,11.20
2022-10-11T22:15:24.834Z,11.19
2022-10-11T22:18:32.213Z,11.18
2022-10-11T22:21:37.563Z,11.19
2022-10-11T22:24:43.008Z,11.16
2022-10-11T22:27:45.985Z,11.22
2022-10-11T22:30:48.893Z,11.25
2022-10-11T22:33:56.565Z,11.26
2022-10-11T22:36:59.378Z,11.27
2022-10-11T22:40:02.414Z,11.24
2022-10-11T22:43:05.474Z,11.17
2022-10-11T22:46:08.852Z,11.11
2022-10-11T22:49:11.765Z,11.04
2022-10-11T22:52:14.768Z,10.98
2022-10-11T22:55:20.278Z,10.93
2022-10-11T22:58:23.417Z,10.90
2022-10-11T23:01:53.107Z,10.87
2022-10-11T23:05:20.830Z,10.85
2022-10-11T23:08:24.518Z,10.75
2022-10-11T23:11:27.599Z,10.75
2022-10-11T23:14:30.426Z,10.74
2022-10-11T23:17:33.641Z,10.70
2022-10-11T23:20:38.618Z,10.68
2022-10-11T23:23:44.842Z,10.68
2022-10-11T23:26:47.729Z,10.68
2022-10-11T23:29:50.589Z,10.66
2022-10-11T23:32:53.368Z,10.64
2022-10-11T23:35:56.172Z,10.61
2022-10-11T23:38:59.443Z,10.57
2022-10-11T23:42:02.283Z,10.55
2022-10-11T23:45:05.796Z,10.55
2022-10-11T23:48:12.073Z,10.52
2022-10-11T23:51:15.293Z,10.51
2022-10-11T23:54:18.131Z,10.52
2022-10-11T23:57:20.925Z,10.57
